JA115 SCSE-SCDA
Flight info
| Callsign | JA115 |
|---|---|
| Flight time | 1h 30m |
| Altitude | 36000 |
| Route | VUGUS UQ802 GAXIR GAXIR5B |
| Aircraft | A320/M-SDE3FGHIRWY/LB1 |
Departure
| Time | 2026-05-08 01:27 |
|---|---|
| Airport | La Florida Airport (SCSE) |
Arrival
| Time | 2026-05-08 02:57 |
|---|---|
| Airport | Diego Aracena International Airport (SCDA) |
| Time | Latitude | Longitude | Altitude | Speed | Heading |
|---|---|---|---|---|---|
| 2026-05-08 01:13 | -29.91707 | -71.20256 | 480 ft | 0 kts | 206° |
| 2026-05-08 01:17 | -29.91707 | -71.20255 | 480 ft | 1 kts | 206° |
| 2026-05-08 01:17 | -29.91687 | -71.20243 | 478 ft | 4 kts | 218° |
| 2026-05-08 01:18 | -29.91669 | -71.20221 | 471 ft | 4 kts | 252° |
| 2026-05-08 01:18 | -29.91668 | -71.20199 | 476 ft | 1 kts | 297° |
| 2026-05-08 01:18 | -29.91670 | -71.20196 | 475 ft | 0 kts | 297° |
| 2026-05-08 01:23 | -29.91659 | -71.20220 | 474 ft | 11 kts | 297° |
| 2026-05-08 01:23 | -29.91589 | -71.20291 | 479 ft | 16 kts | 8° |
| 2026-05-08 01:23 | -29.91562 | -71.20277 | 481 ft | 0 kts | 18° |
| 2026-05-08 01:24 | -29.91559 | -71.20276 | 481 ft | 0 kts | 18° |
| 2026-05-08 01:24 | -29.91558 | -71.20275 | 481 ft | 1 kts | 18° |
| 2026-05-08 01:24 | -29.91515 | -71.20285 | 478 ft | 15 kts | 327° |
| 2026-05-08 01:24 | -29.91442 | -71.20420 | 474 ft | 26 kts | 297° |
| 2026-05-08 01:25 | -29.91350 | -71.20638 | 478 ft | 33 kts | 296° |
| 2026-05-08 01:25 | -29.91289 | -71.20837 | 480 ft | 9 kts | 308° |
| 2026-05-08 01:25 | -29.91279 | -71.20817 | 474 ft | 0 kts | 112° |
| 2026-05-08 01:25 | -29.91282 | -71.20809 | 475 ft | 2 kts | 112° |
| 2026-05-08 01:26 | -29.91290 | -71.20786 | 478 ft | 14 kts | 112° |
| 2026-05-08 01:26 | -29.91433 | -71.20438 | 476 ft | 87 kts | 115° |
| 2026-05-08 01:26 | -29.91801 | -71.19567 | 494 ft | 149 kts | 112° |
| 2026-05-08 01:26 | -29.92270 | -71.18425 | 978 ft | 161 kts | 115° |
| 2026-05-08 01:27 | -29.92761 | -71.17279 | 1755 ft | 163 kts | 117° |
| 2026-05-08 01:27 | -29.93298 | -71.16044 | 2318 ft | 183 kts | 117° |
| 2026-05-08 01:27 | -29.93899 | -71.14663 | 2846 ft | 202 kts | 117° |
| 2026-05-08 01:27 | -29.94677 | -71.13198 | 3366 ft | 226 kts | 128° |
| 2026-05-08 01:28 | -29.95679 | -71.11691 | 3769 ft | 248 kts | 128° |
| 2026-05-08 01:28 | -29.96767 | -71.10060 | 4310 ft | 262 kts | 128° |
| 2026-05-08 01:28 | -29.97882 | -71.08380 | 5106 ft | 266 kts | 127° |
| 2026-05-08 01:28 | -29.98793 | -71.06508 | 5898 ft | 271 kts | 112° |
| 2026-05-08 01:29 | -29.99265 | -71.04391 | 6668 ft | 276 kts | 97° |
| 2026-05-08 01:29 | -29.99263 | -71.02167 | 7381 ft | 280 kts | 81° |
| 2026-05-08 01:29 | -29.98766 | -70.99984 | 8097 ft | 283 kts | 66° |
| 2026-05-08 01:29 | -29.97810 | -70.98033 | 8836 ft | 284 kts | 51° |
| 2026-05-08 01:30 | -29.96432 | -70.96406 | 9595 ft | 284 kts | 36° |
| 2026-05-08 01:30 | -29.94740 | -70.95250 | 10297 ft | 284 kts | 21° |
| 2026-05-08 01:30 | -29.92831 | -70.94637 | 10953 ft | 286 kts | 6° |
| 2026-05-08 01:30 | -29.90809 | -70.94595 | 11309 ft | 301 kts | 355° |
| 2026-05-08 01:31 | -29.88639 | -70.94802 | 11437 ft | 323 kts | 354° |
| 2026-05-08 01:31 | -29.86347 | -70.95028 | 11779 ft | 336 kts | 354° |
| 2026-05-08 01:31 | -29.83998 | -70.95257 | 12322 ft | 341 kts | 354° |
| 2026-05-08 01:31 | -29.81607 | -70.95486 | 12897 ft | 346 kts | 354° |
| 2026-05-08 01:32 | -29.79194 | -70.95712 | 13486 ft | 351 kts | 354° |
| 2026-05-08 01:32 | -29.77572 | -70.95862 | 13863 ft | 354 kts | 354° |
| 2026-05-08 01:32 | -29.75093 | -70.96092 | 14304 ft | 361 kts | 354° |
| 2026-05-08 01:32 | -29.72571 | -70.96325 | 14729 ft | 367 kts | 354° |
| 2026-05-08 01:33 | -29.69126 | -70.96646 | 15283 ft | 376 kts | 353° |
| 2026-05-08 01:33 | -29.67393 | -70.96809 | 15574 ft | 380 kts | 353° |
| 2026-05-08 01:33 | -29.63865 | -70.97139 | 16128 ft | 388 kts | 353° |
| 2026-05-08 01:33 | -29.62038 | -70.97311 | 16419 ft | 392 kts | 352° |
| 2026-05-08 01:34 | -29.59302 | -70.97569 | 16839 ft | 398 kts | 352° |
| 2026-05-08 01:34 | -29.56522 | -70.97835 | 17243 ft | 403 kts | 352° |
| 2026-05-08 01:34 | -29.53703 | -70.98102 | 17663 ft | 409 kts | 351° |
| 2026-05-08 01:34 | -29.50902 | -70.98367 | 18051 ft | 414 kts | 351° |
| 2026-05-08 01:35 | -29.48009 | -70.98638 | 18452 ft | 419 kts | 351° |
| 2026-05-08 01:35 | -29.45088 | -70.98906 | 18850 ft | 423 kts | 351° |
| 2026-05-08 01:35 | -29.42145 | -70.99176 | 19266 ft | 426 kts | 351° |
| 2026-05-08 01:35 | -29.39175 | -70.99448 | 19679 ft | 429 kts | 351° |
| 2026-05-08 01:36 | -29.36184 | -70.99725 | 20119 ft | 432 kts | 351° |
| 2026-05-08 01:36 | -29.33223 | -71.00003 | 20551 ft | 434 kts | 350° |
| 2026-05-08 01:36 | -29.30200 | -71.00284 | 20932 ft | 437 kts | 350° |
| 2026-05-08 01:36 | -29.27153 | -71.00517 | 21334 ft | 442 kts | 354° |
| 2026-05-08 01:37 | -29.24056 | -71.00327 | 21750 ft | 448 kts | 0° |
| 2026-05-08 01:37 | -29.20940 | -71.00027 | 22165 ft | 451 kts | 0° |
| 2026-05-08 01:37 | -29.17802 | -70.99730 | 22570 ft | 454 kts | 360° |
| 2026-05-08 01:37 | -29.14644 | -70.99431 | 22956 ft | 457 kts | 360° |
| 2026-05-08 01:38 | -29.11460 | -70.99132 | 23323 ft | 460 kts | 360° |
| 2026-05-08 01:38 | -29.08262 | -70.98834 | 23668 ft | 463 kts | 359° |
| 2026-05-08 01:38 | -29.05043 | -70.98535 | 23979 ft | 465 kts | 360° |
| 2026-05-08 01:38 | -29.01807 | -70.98232 | 24303 ft | 467 kts | 360° |
| 2026-05-08 01:39 | -28.98551 | -70.97926 | 24606 ft | 470 kts | 360° |
| 2026-05-08 01:39 | -28.95284 | -70.97622 | 24916 ft | 472 kts | 0° |
| 2026-05-08 01:39 | -28.92042 | -70.97320 | 25224 ft | 474 kts | 360° |
| 2026-05-08 01:39 | -28.88744 | -70.97013 | 25535 ft | 477 kts | 360° |
| 2026-05-08 01:40 | -28.85425 | -70.96700 | 25855 ft | 479 kts | 0° |
| 2026-05-08 01:40 | -28.82134 | -70.96387 | 26154 ft | 482 kts | 0° |
| 2026-05-08 01:40 | -28.78781 | -70.96068 | 26472 ft | 484 kts | 0° |
| 2026-05-08 01:40 | -28.75417 | -70.95751 | 26784 ft | 487 kts | 0° |
| 2026-05-08 01:41 | -28.72033 | -70.95436 | 27071 ft | 489 kts | 0° |
| 2026-05-08 01:41 | -28.68634 | -70.95125 | 27363 ft | 491 kts | 0° |
| 2026-05-08 01:41 | -28.65219 | -70.94811 | 27663 ft | 494 kts | 0° |
| 2026-05-08 01:41 | -28.61784 | -70.94493 | 27976 ft | 496 kts | 0° |
| 2026-05-08 01:42 | -28.58441 | -70.94181 | 28277 ft | 498 kts | 0° |
| 2026-05-08 01:42 | -28.54988 | -70.93861 | 28581 ft | 501 kts | 0° |
| 2026-05-08 01:42 | -28.51499 | -70.93537 | 28881 ft | 503 kts | 0° |
| 2026-05-08 01:42 | -28.48050 | -70.93213 | 29272 ft | 503 kts | 1° |
| 2026-05-08 01:43 | -28.44569 | -70.92864 | 29732 ft | 502 kts | 1° |
| 2026-05-08 01:43 | -28.41086 | -70.92500 | 30156 ft | 502 kts | 1° |
| 2026-05-08 01:43 | -28.37603 | -70.92129 | 30518 ft | 502 kts | 2° |
| 2026-05-08 01:43 | -28.34135 | -70.91754 | 30893 ft | 501 kts | 2° |
| 2026-05-08 01:44 | -28.30662 | -70.91380 | 31269 ft | 501 kts | 2° |
| 2026-05-08 01:44 | -28.27195 | -70.91013 | 31654 ft | 500 kts | 2° |
| 2026-05-08 01:44 | -28.23735 | -70.90653 | 32024 ft | 499 kts | 2° |
| 2026-05-08 01:44 | -28.20279 | -70.90296 | 32412 ft | 498 kts | 2° |
| 2026-05-08 01:45 | -28.16823 | -70.89932 | 32808 ft | 497 kts | 2° |
| 2026-05-08 01:45 | -28.13382 | -70.89562 | 33199 ft | 497 kts | 2° |
| 2026-05-08 01:45 | -28.09947 | -70.89189 | 33600 ft | 496 kts | 2° |
| 2026-05-08 01:45 | -28.06555 | -70.88822 | 33979 ft | 495 kts | 2° |
| 2026-05-08 01:46 | -28.03125 | -70.88454 | 34292 ft | 494 kts | 2° |
| 2026-05-08 01:46 | -27.99707 | -70.88090 | 34597 ft | 493 kts | 2° |
| 2026-05-08 01:46 | -27.96288 | -70.87727 | 34891 ft | 493 kts | 2° |
| 2026-05-08 01:46 | -27.92875 | -70.87368 | 35196 ft | 492 kts | 2° |
| 2026-05-08 01:47 | -27.89470 | -70.87013 | 35475 ft | 491 kts | 2° |
| 2026-05-08 01:47 | -27.86073 | -70.86656 | 35773 ft | 490 kts | 2° |
| 2026-05-08 01:47 | -27.82684 | -70.86298 | 35975 ft | 490 kts | 3° |
| 2026-05-08 01:48 | -27.72400 | -70.85206 | 36020 ft | 498 kts | 3° |
| 2026-05-08 01:48 | -27.65538 | -70.84480 | 36023 ft | 498 kts | 3° |
| 2026-05-08 01:49 | -27.58675 | -70.83754 | 36024 ft | 498 kts | 3° |
| 2026-05-08 01:49 | -27.51778 | -70.83031 | 36025 ft | 498 kts | 3° |
| 2026-05-08 01:50 | -27.44882 | -70.82305 | 36030 ft | 498 kts | 3° |
| 2026-05-08 01:50 | -27.37918 | -70.81576 | 36030 ft | 508 kts | 3° |
| 2026-05-08 01:51 | -27.30809 | -70.80830 | 36029 ft | 515 kts | 3° |
| 2026-05-08 01:51 | -27.23655 | -70.80076 | 36028 ft | 516 kts | 3° |
| 2026-05-08 01:52 | -27.16555 | -70.79331 | 36028 ft | 516 kts | 3° |
| 2026-05-08 01:52 | -27.09414 | -70.78585 | 36028 ft | 515 kts | 3° |
| 2026-05-08 01:53 | -27.02276 | -70.77842 | 36036 ft | 515 kts | 3° |
| 2026-05-08 01:53 | -26.95129 | -70.77086 | 36039 ft | 515 kts | 3° |
| 2026-05-08 01:54 | -26.87988 | -70.76344 | 36046 ft | 515 kts | 3° |
| 2026-05-08 01:54 | -26.80861 | -70.75609 | 36051 ft | 514 kts | 3° |
| 2026-05-08 01:55 | -26.73734 | -70.74875 | 36048 ft | 514 kts | 3° |
| 2026-05-08 01:55 | -26.66621 | -70.74131 | 36048 ft | 513 kts | 4° |
| 2026-05-08 01:56 | -26.59536 | -70.73089 | 36049 ft | 514 kts | 7° |
| 2026-05-08 01:56 | -26.52478 | -70.71771 | 36050 ft | 513 kts | 8° |
| 2026-05-08 01:57 | -26.45435 | -70.70464 | 36050 ft | 513 kts | 7° |
| 2026-05-08 01:57 | -26.38361 | -70.69544 | 36053 ft | 511 kts | 2° |
| 2026-05-08 01:58 | -26.31339 | -70.69062 | 36053 ft | 510 kts | 1° |
| 2026-05-08 01:58 | -26.24296 | -70.68604 | 36053 ft | 509 kts | 2° |
| 2026-05-08 01:59 | -26.17229 | -70.68004 | 36051 ft | 509 kts | 3° |
| 2026-05-08 01:59 | -26.10175 | -70.67340 | 36056 ft | 508 kts | 3° |
| 2026-05-08 02:00 | -26.03130 | -70.66698 | 36054 ft | 508 kts | 2° |
| 2026-05-08 02:00 | -25.96093 | -70.66086 | 36054 ft | 507 kts | 2° |
| 2026-05-08 02:01 | -25.89067 | -70.65472 | 36053 ft | 506 kts | 2° |
| 2026-05-08 02:01 | -25.82052 | -70.64863 | 36053 ft | 505 kts | 2° |
| 2026-05-08 02:02 | -25.75049 | -70.64262 | 36055 ft | 504 kts | 2° |
| 2026-05-08 02:02 | -25.68058 | -70.63654 | 36046 ft | 503 kts | 2° |
| 2026-05-08 02:03 | -25.61075 | -70.63042 | 36046 ft | 503 kts | 2° |
| 2026-05-08 02:03 | -25.54109 | -70.62430 | 36045 ft | 502 kts | 2° |
| 2026-05-08 02:04 | -25.47334 | -70.61841 | 36044 ft | 501 kts | 2° |
| 2026-05-08 02:04 | -25.40396 | -70.61245 | 36040 ft | 500 kts | 2° |
| 2026-05-08 02:05 | -25.33462 | -70.60651 | 36052 ft | 499 kts | 2° |
| 2026-05-08 02:05 | -25.26652 | -70.60060 | 36047 ft | 499 kts | 2° |
| 2026-05-08 02:06 | -25.19736 | -70.59464 | 36052 ft | 498 kts | 2° |
| 2026-05-08 02:06 | -25.12839 | -70.58879 | 36049 ft | 497 kts | 2° |
| 2026-05-08 02:07 | -25.05951 | -70.58286 | 36044 ft | 496 kts | 3° |
| 2026-05-08 02:07 | -24.99071 | -70.57688 | 36043 ft | 495 kts | 3° |
| 2026-05-08 02:08 | -24.92206 | -70.57095 | 36035 ft | 494 kts | 2° |
| 2026-05-08 02:08 | -24.85350 | -70.56506 | 36030 ft | 494 kts | 2° |
| 2026-05-08 02:09 | -24.78550 | -70.55976 | 36032 ft | 492 kts | 0° |
| 2026-05-08 02:09 | -24.71706 | -70.55892 | 36028 ft | 491 kts | 357° |
| 2026-05-08 02:10 | -24.64881 | -70.56087 | 36022 ft | 490 kts | 356° |
| 2026-05-08 02:10 | -24.58180 | -70.56238 | 36023 ft | 490 kts | 357° |
| 2026-05-08 02:11 | -24.51365 | -70.56271 | 36026 ft | 489 kts | 358° |
| 2026-05-08 02:11 | -24.44560 | -70.56275 | 36024 ft | 488 kts | 358° |
| 2026-05-08 02:12 | -24.37758 | -70.56301 | 36024 ft | 488 kts | 358° |
| 2026-05-08 02:12 | -24.30978 | -70.56356 | 36025 ft | 487 kts | 358° |
| 2026-05-08 02:13 | -24.24205 | -70.56409 | 36025 ft | 486 kts | 358° |
| 2026-05-08 02:13 | -24.17483 | -70.56450 | 36029 ft | 486 kts | 358° |
| 2026-05-08 02:14 | -24.10734 | -70.56487 | 36033 ft | 485 kts | 358° |
| 2026-05-08 02:14 | -24.03988 | -70.56528 | 36031 ft | 484 kts | 358° |
| 2026-05-08 02:15 | -23.97253 | -70.56569 | 36033 ft | 484 kts | 358° |
| 2026-05-08 02:15 | -23.90525 | -70.56615 | 36032 ft | 483 kts | 357° |
| 2026-05-08 02:16 | -23.83842 | -70.56653 | 36032 ft | 482 kts | 357° |
| 2026-05-08 02:16 | -23.77496 | -70.56688 | 36034 ft | 482 kts | 358° |
| 2026-05-08 02:17 | -23.70837 | -70.56671 | 36038 ft | 481 kts | 358° |
| 2026-05-08 02:17 | -23.64145 | -70.56614 | 36040 ft | 480 kts | 358° |
| 2026-05-08 02:18 | -23.57463 | -70.56572 | 36042 ft | 480 kts | 358° |
| 2026-05-08 02:18 | -23.50788 | -70.56540 | 36043 ft | 479 kts | 358° |
| 2026-05-08 02:19 | -23.44120 | -70.56518 | 36041 ft | 479 kts | 358° |
| 2026-05-08 02:19 | -23.37460 | -70.56494 | 36036 ft | 479 kts | 358° |
| 2026-05-08 02:20 | -23.30847 | -70.56471 | 36033 ft | 478 kts | 358° |
| 2026-05-08 02:20 | -23.24196 | -70.56441 | 36029 ft | 478 kts | 358° |
| 2026-05-08 02:21 | -23.17542 | -70.56411 | 36021 ft | 478 kts | 358° |
| 2026-05-08 02:21 | -23.10901 | -70.56379 | 36015 ft | 477 kts | 358° |
| 2026-05-08 02:22 | -23.04261 | -70.56347 | 36010 ft | 477 kts | 358° |
| 2026-05-08 02:22 | -22.97617 | -70.56315 | 36011 ft | 477 kts | 358° |
| 2026-05-08 02:23 | -22.90980 | -70.56283 | 36014 ft | 477 kts | 358° |
| 2026-05-08 02:23 | -22.84350 | -70.56236 | 35892 ft | 476 kts | 358° |
| 2026-05-08 02:24 | -22.81080 | -70.56178 | 35745 ft | 476 kts | 359° |
| 2026-05-08 02:24 | -22.77766 | -70.56107 | 35599 ft | 476 kts | 359° |
| 2026-05-08 02:24 | -22.74457 | -70.56030 | 35454 ft | 476 kts | 359° |
| 2026-05-08 02:24 | -22.71147 | -70.55952 | 35309 ft | 476 kts | 359° |
| 2026-05-08 02:25 | -22.67829 | -70.55879 | 35163 ft | 476 kts | 359° |
| 2026-05-08 02:25 | -22.64529 | -70.55811 | 35014 ft | 470 kts | 359° |
| 2026-05-08 02:25 | -22.61296 | -70.55749 | 34875 ft | 459 kts | 359° |
| 2026-05-08 02:25 | -22.58134 | -70.55689 | 34724 ft | 449 kts | 359° |
| 2026-05-08 02:26 | -22.55036 | -70.55635 | 34587 ft | 443 kts | 358° |
| 2026-05-08 02:26 | -22.51959 | -70.55584 | 34447 ft | 441 kts | 358° |
| 2026-05-08 02:26 | -22.48897 | -70.55530 | 34311 ft | 439 kts | 359° |
| 2026-05-08 02:26 | -22.46879 | -70.55492 | 34216 ft | 438 kts | 359° |
| 2026-05-08 02:27 | -22.43833 | -70.55431 | 34075 ft | 438 kts | 359° |
| 2026-05-08 02:27 | -22.40785 | -70.55370 | 33859 ft | 437 kts | 358° |
| 2026-05-08 02:27 | -22.37751 | -70.55311 | 33593 ft | 435 kts | 359° |
| 2026-05-08 02:27 | -22.34727 | -70.55252 | 33337 ft | 434 kts | 359° |
| 2026-05-08 02:28 | -22.30734 | -70.55179 | 32988 ft | 432 kts | 359° |
| 2026-05-08 02:28 | -22.28706 | -70.55142 | 32823 ft | 432 kts | 359° |
| 2026-05-08 02:28 | -22.25698 | -70.55085 | 32562 ft | 431 kts | 359° |
| 2026-05-08 02:28 | -22.22708 | -70.55028 | 32312 ft | 429 kts | 359° |
| 2026-05-08 02:29 | -22.19724 | -70.54968 | 32077 ft | 428 kts | 359° |
| 2026-05-08 02:29 | -22.16791 | -70.54904 | 31825 ft | 427 kts | 359° |
| 2026-05-08 02:29 | -22.13822 | -70.54841 | 31582 ft | 426 kts | 359° |
| 2026-05-08 02:29 | -22.10868 | -70.54783 | 31340 ft | 424 kts | 359° |
| 2026-05-08 02:30 | -22.07917 | -70.54732 | 31101 ft | 423 kts | 359° |
| 2026-05-08 02:30 | -22.04983 | -70.54684 | 30862 ft | 422 kts | 359° |
| 2026-05-08 02:30 | -22.02055 | -70.54636 | 30619 ft | 420 kts | 359° |
| 2026-05-08 02:30 | -21.99132 | -70.54585 | 30298 ft | 419 kts | 359° |
| 2026-05-08 02:31 | -21.96232 | -70.54529 | 29928 ft | 416 kts | 359° |
| 2026-05-08 02:31 | -21.93922 | -70.54484 | 29604 ft | 415 kts | 359° |
| 2026-05-08 02:31 | -21.91043 | -70.54428 | 29202 ft | 413 kts | 359° |
| 2026-05-08 02:31 | -21.88182 | -70.54203 | 28810 ft | 412 kts | 7° |
| 2026-05-08 02:32 | -21.85357 | -70.53679 | 28420 ft | 410 kts | 8° |
| 2026-05-08 02:32 | -21.82585 | -70.53153 | 28041 ft | 409 kts | 8° |
| 2026-05-08 02:32 | -21.79789 | -70.52623 | 27661 ft | 407 kts | 8° |
| 2026-05-08 02:32 | -21.77007 | -70.52100 | 27289 ft | 405 kts | 8° |
| 2026-05-08 02:33 | -21.74234 | -70.51586 | 26890 ft | 404 kts | 8° |
| 2026-05-08 02:33 | -21.71469 | -70.51074 | 26478 ft | 402 kts | 8° |
| 2026-05-08 02:33 | -21.68716 | -70.50563 | 26072 ft | 401 kts | 8° |
| 2026-05-08 02:33 | -21.65977 | -70.50052 | 25673 ft | 399 kts | 8° |
| 2026-05-08 02:34 | -21.63245 | -70.49544 | 25279 ft | 398 kts | 9° |
| 2026-05-08 02:34 | -21.60525 | -70.49036 | 24893 ft | 396 kts | 9° |
| 2026-05-08 02:34 | -21.57816 | -70.48532 | 24505 ft | 394 kts | 9° |
| 2026-05-08 02:34 | -21.55123 | -70.48029 | 24118 ft | 392 kts | 9° |
| 2026-05-08 02:35 | -21.52440 | -70.47530 | 23749 ft | 390 kts | 9° |
| 2026-05-08 02:35 | -21.49769 | -70.47033 | 23339 ft | 389 kts | 9° |
| 2026-05-08 02:35 | -21.47108 | -70.46535 | 22900 ft | 387 kts | 9° |
| 2026-05-08 02:35 | -21.44462 | -70.46038 | 22467 ft | 386 kts | 9° |
| 2026-05-08 02:36 | -21.41822 | -70.45546 | 22037 ft | 384 kts | 9° |
| 2026-05-08 02:36 | -21.39227 | -70.45064 | 21621 ft | 382 kts | 9° |
| 2026-05-08 02:36 | -21.36608 | -70.44579 | 21204 ft | 381 kts | 9° |
| 2026-05-08 02:36 | -21.34005 | -70.44096 | 20798 ft | 379 kts | 9° |
| 2026-05-08 02:37 | -21.31411 | -70.43612 | 20380 ft | 377 kts | 9° |
| 2026-05-08 02:37 | -21.28829 | -70.43132 | 19996 ft | 376 kts | 9° |
| 2026-05-08 02:37 | -21.26260 | -70.42657 | 19601 ft | 374 kts | 9° |
| 2026-05-08 02:37 | -21.23702 | -70.42184 | 19216 ft | 372 kts | 9° |
| 2026-05-08 02:38 | -21.21159 | -70.41711 | 18831 ft | 370 kts | 9° |
| 2026-05-08 02:38 | -21.18625 | -70.41239 | 18452 ft | 369 kts | 9° |
| 2026-05-08 02:38 | -21.16101 | -70.40770 | 18041 ft | 367 kts | 9° |
| 2026-05-08 02:38 | -21.13587 | -70.40304 | 17607 ft | 366 kts | 9° |
| 2026-05-08 02:39 | -21.11083 | -70.39842 | 17176 ft | 364 kts | 9° |
| 2026-05-08 02:39 | -21.08647 | -70.39391 | 16767 ft | 363 kts | 9° |
| 2026-05-08 02:39 | -21.06167 | -70.38934 | 16351 ft | 361 kts | 9° |
| 2026-05-08 02:39 | -21.03699 | -70.38481 | 15940 ft | 359 kts | 9° |
| 2026-05-08 02:40 | -21.01239 | -70.38024 | 15564 ft | 357 kts | 9° |
| 2026-05-08 02:40 | -20.98806 | -70.37572 | 15226 ft | 353 kts | 9° |
| 2026-05-08 02:40 | -20.96403 | -70.37126 | 14900 ft | 349 kts | 9° |
| 2026-05-08 02:40 | -20.94015 | -70.36681 | 14579 ft | 346 kts | 9° |
| 2026-05-08 02:41 | -20.91654 | -70.36241 | 14260 ft | 343 kts | 8° |
| 2026-05-08 02:41 | -20.89311 | -70.35809 | 13946 ft | 340 kts | 8° |
| 2026-05-08 02:41 | -20.87021 | -70.35389 | 13621 ft | 337 kts | 8° |
| 2026-05-08 02:41 | -20.84711 | -70.35024 | 13255 ft | 334 kts | 2° |
| 2026-05-08 02:42 | -20.82420 | -70.34998 | 12909 ft | 331 kts | 358° |
| 2026-05-08 02:42 | -20.80176 | -70.35017 | 12575 ft | 328 kts | 358° |
| 2026-05-08 02:42 | -20.77896 | -70.35031 | 12227 ft | 326 kts | 359° |
| 2026-05-08 02:42 | -20.75632 | -70.35045 | 11880 ft | 324 kts | 359° |
| 2026-05-08 02:43 | -20.73379 | -70.35060 | 11554 ft | 322 kts | 359° |
| 2026-05-08 02:43 | -20.71140 | -70.35077 | 11220 ft | 320 kts | 359° |
| 2026-05-08 02:43 | -20.68947 | -70.35093 | 10892 ft | 318 kts | 359° |
| 2026-05-08 02:43 | -20.66739 | -70.35108 | 10575 ft | 316 kts | 359° |
| 2026-05-08 02:44 | -20.64547 | -70.35122 | 10248 ft | 314 kts | 359° |
| 2026-05-08 02:44 | -20.62376 | -70.35135 | 10031 ft | 308 kts | 359° |
| 2026-05-08 02:44 | -20.60268 | -70.35144 | 10001 ft | 296 kts | 359° |
| 2026-05-08 02:44 | -20.58262 | -70.35133 | 10006 ft | 282 kts | 360° |
| 2026-05-08 02:45 | -20.56321 | -70.35116 | 9898 ft | 278 kts | 360° |
| 2026-05-08 02:45 | -20.54402 | -70.35097 | 9676 ft | 274 kts | 360° |
| 2026-05-08 02:45 | -20.52501 | -70.35080 | 9418 ft | 273 kts | 0° |
| 2026-05-08 02:45 | -20.50601 | -70.35063 | 9066 ft | 274 kts | 0° |
| 2026-05-08 02:46 | -20.48684 | -70.35046 | 8698 ft | 276 kts | 0° |
| 2026-05-08 02:46 | -20.46753 | -70.35031 | 8330 ft | 278 kts | 0° |
| 2026-05-08 02:46 | -20.44812 | -70.35020 | 7973 ft | 280 kts | 0° |
| 2026-05-08 02:46 | -20.42855 | -70.35008 | 7615 ft | 282 kts | 0° |
| 2026-05-08 02:47 | -20.40890 | -70.34994 | 7260 ft | 283 kts | 0° |
| 2026-05-08 02:47 | -20.38914 | -70.34980 | 6915 ft | 284 kts | 1° |
| 2026-05-08 02:47 | -20.36939 | -70.34842 | 6577 ft | 285 kts | 11° |
| 2026-05-08 02:47 | -20.35065 | -70.34232 | 6347 ft | 279 kts | 24° |
| 2026-05-08 02:48 | -20.33312 | -70.33382 | 6133 ft | 275 kts | 25° |
| 2026-05-08 02:48 | -20.31600 | -70.32558 | 6009 ft | 266 kts | 25° |
| 2026-05-08 02:48 | -20.29948 | -70.31765 | 6009 ft | 253 kts | 25° |
| 2026-05-08 02:48 | -20.28391 | -70.31017 | 6011 ft | 238 kts | 25° |
| 2026-05-08 02:49 | -20.26946 | -70.30323 | 6011 ft | 224 kts | 25° |
| 2026-05-08 02:49 | -20.25585 | -70.29641 | 6022 ft | 207 kts | 32° |
| 2026-05-08 02:49 | -20.24523 | -70.28730 | 6009 ft | 188 kts | 49° |
| 2026-05-08 02:49 | -20.23805 | -70.27613 | 5949 ft | 181 kts | 65° |
| 2026-05-08 02:50 | -20.23413 | -70.26353 | 5856 ft | 179 kts | 81° |
| 2026-05-08 02:50 | -20.23357 | -70.25037 | 5765 ft | 178 kts | 96° |
| 2026-05-08 02:50 | -20.23632 | -70.23756 | 5661 ft | 178 kts | 112° |
| 2026-05-08 02:50 | -20.24218 | -70.22603 | 5587 ft | 177 kts | 127° |
| 2026-05-08 02:51 | -20.25053 | -70.21638 | 5517 ft | 177 kts | 141° |
| 2026-05-08 02:51 | -20.26080 | -70.20927 | 5516 ft | 177 kts | 155° |
| 2026-05-08 02:51 | -20.27249 | -70.20517 | 5523 ft | 177 kts | 169° |
| 2026-05-08 02:51 | -20.28477 | -70.20423 | 5525 ft | 177 kts | 179° |
| 2026-05-08 02:52 | -20.29712 | -70.20405 | 5516 ft | 177 kts | 179° |
| 2026-05-08 02:52 | -20.30943 | -70.20383 | 5532 ft | 176 kts | 179° |
| 2026-05-08 02:52 | -20.32175 | -70.20359 | 5524 ft | 177 kts | 179° |
| 2026-05-08 02:52 | -20.33400 | -70.20267 | 5514 ft | 177 kts | 168° |
| 2026-05-08 02:53 | -20.34603 | -70.19988 | 5513 ft | 177 kts | 168° |
| 2026-05-08 02:53 | -20.35806 | -70.19715 | 5509 ft | 177 kts | 168° |
| 2026-05-08 02:53 | -20.37015 | -70.19442 | 5363 ft | 177 kts | 168° |
| 2026-05-08 02:53 | -20.38201 | -70.19174 | 5168 ft | 176 kts | 168° |
| 2026-05-08 02:54 | -20.39394 | -70.18905 | 4926 ft | 175 kts | 168° |
| 2026-05-08 02:54 | -20.40576 | -70.18636 | 4681 ft | 173 kts | 168° |
| 2026-05-08 02:54 | -20.41757 | -70.18365 | 4405 ft | 173 kts | 168° |
| 2026-05-08 02:54 | -20.42928 | -70.18098 | 4029 ft | 171 kts | 168° |
| 2026-05-08 02:55 | -20.44089 | -70.17833 | 3617 ft | 170 kts | 168° |
| 2026-05-08 02:55 | -20.46399 | -70.17743 | 2518 ft | 165 kts | 183° |
| 2026-05-08 02:55 | -20.47533 | -70.17806 | 2218 ft | 162 kts | 183° |
| 2026-05-08 02:56 | -20.48655 | -70.17867 | 2172 ft | 156 kts | 183° |
| 2026-05-08 02:56 | -20.49716 | -70.17927 | 1695 ft | 154 kts | 183° |
| 2026-05-08 02:56 | -20.50816 | -70.17994 | 946 ft | 163 kts | 184° |
| 2026-05-08 02:56 | -20.51974 | -70.18058 | 328 ft | 166 kts | 182° |
| 2026-05-08 02:57 | -20.53045 | -70.18100 | 176 ft | 131 kts | 181° |
| 2026-05-08 02:57 | -20.53653 | -70.18133 | 173 ft | 60 kts | 184° |
| 2026-05-08 02:57 | -20.54045 | -70.18151 | 175 ft | 47 kts | 181° |
| 2026-05-08 02:57 | -20.54311 | -70.18152 | 176 ft | 30 kts | 165° |
| 2026-05-08 02:58 | -20.54430 | -70.18111 | 176 ft | 10 kts | 156° |
| 2026-05-08 02:58 | -20.54450 | -70.18098 | 176 ft | 0 kts | 147° |
| 2026-05-08 03:00 | -20.54491 | -70.18070 | 175 ft | 13 kts | 147° |
| 2026-05-08 03:01 | -20.54558 | -70.18009 | 174 ft | 8 kts | 105° |
| 2026-05-08 03:01 | -20.54552 | -70.17992 | 174 ft | 6 kts | 56° |
| 2026-05-08 03:01 | -20.54541 | -70.17969 | 174 ft | 1 kts | 70° |
| 2026-05-08 03:01 | -20.54541 | -70.17955 | 174 ft | 3 kts | 92° |
| 2026-05-08 03:02 | -20.54543 | -70.17926 | 174 ft | 5 kts | 94° |
| 2026-05-08 03:02 | -20.54543 | -70.17915 | 174 ft | 0 kts | 94° |